createdAt,value
2017-09-15T06:09:39.644Z,2.85
2017-09-15T06:12:07.784Z,2.25
2017-09-15T06:14:35.905Z,2.70
2017-09-15T06:17:05.327Z,2.90
2017-09-15T06:19:33.467Z,2.85
2017-09-15T06:22:01.675Z,3.08
2017-09-15T06:24:29.944Z,2.75
2017-09-15T06:26:58.069Z,2.60
2017-09-15T06:29:26.214Z,2.60
2017-09-15T06:31:55.132Z,2.75
2017-09-15T06:34:23.276Z,2.28
2017-09-15T06:36:52.165Z,2.28
2017-09-15T06:39:21.092Z,2.30
2017-09-15T06:41:49.232Z,2.20
2017-09-15T06:44:18.188Z,2.60
2017-09-15T06:46:46.313Z,1.90
2017-09-15T06:49:14.478Z,2.10
2017-09-15T06:51:42.636Z,2.75
2017-09-15T06:54:11.535Z,2.42
2017-09-15T06:56:40.469Z,2.35
2017-09-15T06:59:08.598Z,2.50
2017-09-15T07:01:36.796Z,2.60
2017-09-15T07:04:04.936Z,2.45
2017-09-15T07:06:33.846Z,2.80
2017-09-15T07:09:02.006Z,3.20
2017-09-15T07:11:30.902Z,3.53
2017-09-15T07:13:59.988Z,2.50
2017-09-15T07:16:28.109Z,2.40
2017-09-15T07:18:56.259Z,1.92
2017-09-15T07:21:24.410Z,2.95
2017-09-15T07:23:53.342Z,2.20
2017-09-15T07:26:21.476Z,2.10
2017-09-15T07:28:50.397Z,2.30
2017-09-15T07:31:18.524Z,2.08
2017-09-15T07:33:46.812Z,2.12
2017-09-15T07:36:15.770Z,1.85
2017-09-15T07:38:43.918Z,1.80
2017-09-15T07:41:12.048Z,3.40
2017-09-15T07:43:40.942Z,2.40
2017-09-15T07:46:09.889Z,2.10
2017-09-15T07:48:38.004Z,2.00
2017-09-15T07:51:07.038Z,2.15
2017-09-15T07:53:35.177Z,3.55
2017-09-15T07:56:03.345Z,2.28
2017-09-15T07:58:32.248Z,1.70
2017-09-15T08:01:00.379Z,2.15
2017-09-15T08:03:28.554Z,1.77
2017-09-15T08:05:56.684Z,2.03
2017-09-15T08:08:24.969Z,1.87
2017-09-15T08:10:53.099Z,1.52
2017-09-15T08:13:22.004Z,1.85
2017-09-15T08:15:50.936Z,1.60
2017-09-15T08:18:19.069Z,1.77
2017-09-15T08:20:47.229Z,1.85
2017-09-15T08:23:16.810Z,1.60
2017-09-15T08:25:45.098Z,1.65
2017-09-15T08:28:13.226Z,1.95
2017-09-15T08:30:41.363Z,1.95
2017-09-15T08:33:10.304Z,2.00
2017-09-15T08:35:38.443Z,1.90
2017-09-15T08:38:06.608Z,1.90
2017-09-15T08:40:34.789Z,2.05
2017-09-15T08:43:02.925Z,2.00
2017-09-15T08:45:31.128Z,1.50
2017-09-15T08:48:00.017Z,2.30
2017-09-15T08:50:28.923Z,1.62
2017-09-15T08:52:57.088Z,1.58
2017-09-15T08:55:25.247Z,1.40
2017-09-15T08:57:54.177Z,1.60
2017-09-15T09:00:22.325Z,1.50
2017-09-15T09:02:50.532Z,1.30
2017-09-15T09:05:18.668Z,1.60
2017-09-15T09:07:46.816Z,1.42
2017-09-15T09:10:14.988Z,1.50
2017-09-15T09:12:43.132Z,1.70
2017-09-15T09:15:12.056Z,1.80
2017-09-15T09:17:40.229Z,1.62
2017-09-15T09:20:08.529Z,1.40
2017-09-15T09:22:37.412Z,1.42
2017-09-15T09:25:06.310Z,1.30
2017-09-15T09:27:35.242Z,1.60
2017-09-15T09:30:03.379Z,1.70
2017-09-15T09:32:31.535Z,1.62
2017-09-15T09:35:00.469Z,1.60
2017-09-15T09:37:28.648Z,1.60
2017-09-15T09:39:56.784Z,2.30
2017-09-15T09:42:25.693Z,1.23
2017-09-15T09:44:53.855Z,1.83
2017-09-15T09:47:22.005Z,1.50
2017-09-15T09:49:50.171Z,1.42
2017-09-15T09:52:18.301Z,1.50
2017-09-15T09:54:46.437Z,1.40
2017-09-15T09:57:15.394Z,1.50
2017-09-15T09:59:43.531Z,1.30
2017-09-15T10:02:11.684Z,1.35
2017-09-15T10:04:39.826Z,1.60
2017-09-15T10:07:07.949Z,1.33
2017-09-15T10:09:36.129Z,1.50
2017-09-15T10:12:04.257Z,1.50
2017-09-15T10:14:33.330Z,1.50
2017-09-15T10:17:01.457Z,1.50
2017-09-15T10:19:29.630Z,1.50
2017-09-15T10:21:57.801Z,1.33
2017-09-15T10:24:25.952Z,1.50
2017-09-15T10:26:54.112Z,1.20
2017-09-15T10:29:22.256Z,1.20
2017-09-15T10:31:50.543Z,1.50
2017-09-15T10:34:18.678Z,1.50
2017-09-15T10:36:46.832Z,1.55
2017-09-15T10:39:15.013Z,1.27
2017-09-15T10:41:43.933Z,1.00
2017-09-15T10:44:12.092Z,1.10
2017-09-15T10:46:40.233Z,1.20
2017-09-15T10:49:09.284Z,1.20
2017-09-15T10:51:37.424Z,1.12
2017-09-15T10:54:05.553Z,1.62
2017-09-15T10:56:33.720Z,1.55
2017-09-15T10:59:01.864Z,1.65
2017-09-15T11:01:30.028Z,1.30
2017-09-15T11:03:58.161Z,1.55
2017-09-15T11:06:27.210Z,1.52
2017-09-15T11:08:55.337Z,1.40
2017-09-15T11:11:24.240Z,1.50
2017-09-15T11:13:52.400Z,1.50
2017-09-15T11:16:21.302Z,1.60
2017-09-15T11:18:49.607Z,2.50
2017-09-15T11:21:17.745Z,1.70
2017-09-15T11:23:46.650Z,2.05
2017-09-15T11:26:18.479Z,1.80
2017-09-15T11:28:46.798Z,1.87
2017-09-15T11:31:14.957Z,1.30
2017-09-15T11:33:43.114Z,1.20
2017-09-15T11:36:12.212Z,1.90
2017-09-15T11:38:41.100Z,1.60
2017-09-15T11:41:10.173Z,1.58
2017-09-15T11:43:38.317Z,1.30
2017-09-15T11:46:07.260Z,1.40
2017-09-15T11:48:36.206Z,1.40
2017-09-15T11:51:04.389Z,1.10
2017-09-15T11:53:32.576Z,1.83
2017-09-15T11:56:00.724Z,1.70
2017-09-15T11:58:28.882Z,1.37
2017-09-15T12:00:57.095Z,1.50
2017-09-15T12:03:30.786Z,1.42
2017-09-15T12:05:59.653Z,1.92
2017-09-15T12:08:27.881Z,1.10
2017-09-15T12:10:57.765Z,1.70
2017-09-15T12:13:26.736Z,1.40
2017-09-15T12:15:54.904Z,1.67
2017-09-15T12:18:23.376Z,1.73
2017-09-15T12:20:51.580Z,1.30
2017-09-15T12:23:19.805Z,1.35
2017-09-15T12:25:47.921Z,1.25
2017-09-15T12:28:16.065Z,1.37
2017-09-15T12:30:44.296Z,1.20
2017-09-15T12:33:12.468Z,1.35
2017-09-15T12:35:40.719Z,1.23
2017-09-15T12:38:08.896Z,1.05
2017-09-15T12:40:37.229Z,1.65
2017-09-15T12:43:05.442Z,1.20
2017-09-15T12:45:34.449Z,1.35
2017-09-15T12:48:02.597Z,1.50
2017-09-15T12:50:30.747Z,1.25
2017-09-15T12:52:59.042Z,1.90
2017-09-15T12:55:27.235Z,1.30
2017-09-15T12:57:55.486Z,1.60
2017-09-15T13:00:23.646Z,1.58
2017-09-15T13:02:52.889Z,1.27
2017-09-15T13:05:22.200Z,1.87
2017-09-15T13:07:57.113Z,1.50
2017-09-15T13:10:28.138Z,1.20
2017-09-15T13:12:57.784Z,1.60
2017-09-15T13:15:25.954Z,1.60
2017-09-15T13:17:56.201Z,1.40
2017-09-15T13:20:24.320Z,1.20
2017-09-15T13:22:52.461Z,1.30
2017-09-15T13:25:21.386Z,1.60
2017-09-15T13:27:49.526Z,1.67
2017-09-15T13:30:18.839Z,1.50
2017-09-15T13:32:46.971Z,1.87
2017-09-15T13:38:54.963Z,1.50
2017-09-15T13:41:32.640Z,2.00
2017-09-15T13:44:03.201Z,1.65
2017-09-15T13:46:31.452Z,1.42
2017-09-15T13:48:59.615Z,1.50
2017-09-15T13:51:27.792Z,1.70
2017-09-15T13:53:55.922Z,1.40
2017-09-15T13:56:24.463Z,1.70
2017-09-15T13:58:52.617Z,1.73
2017-09-15T14:01:21.545Z,1.60
2017-09-15T14:03:51.144Z,1.40
2017-09-15T14:06:19.293Z,1.80
2017-09-15T14:08:47.457Z,1.75
2017-09-15T14:11:15.630Z,1.87
2017-09-15T14:13:44.547Z,1.80
2017-09-15T14:16:12.778Z,1.50
2017-09-15T14:18:40.905Z,1.55
2017-09-15T14:21:10.475Z,1.30
2017-09-15T14:23:39.414Z,1.30
2017-09-15T14:26:07.552Z,1.73
2017-09-15T14:28:35.697Z,1.20
2017-09-15T14:31:04.645Z,1.20
2017-09-15T14:33:32.793Z,1.30
2017-09-15T14:36:01.298Z,1.70
2017-09-15T14:38:29.416Z,1.50
2017-09-15T14:40:58.341Z,1.52
2017-09-15T14:43:26.501Z,1.40
2017-09-15T14:45:54.651Z,1.40
2017-09-15T14:48:23.576Z,1.50
2017-09-15T14:50:51.708Z,1.52
2017-09-15T14:53:21.029Z,1.52
2017-09-15T14:55:50.429Z,1.45
2017-09-15T14:58:18.599Z,1.73
2017-09-15T15:00:47.497Z,2.03
2017-09-15T15:03:15.679Z,1.20
2017-09-15T15:05:43.824Z,1.45
2017-09-15T15:08:11.998Z,1.20
2017-09-15T15:10:40.518Z,1.10
2017-09-15T15:13:08.653Z,1.20
2017-09-15T15:15:37.593Z,1.17
2017-09-15T15:18:05.762Z,1.60
2017-09-15T15:20:33.976Z,1.27
2017-09-15T15:23:02.109Z,1.75
2017-09-15T15:25:30.306Z,1.00
2017-09-15T15:27:58.441Z,1.30
2017-09-15T15:30:26.623Z,1.00
2017-09-15T15:32:54.770Z,1.05
2017-09-15T15:35:23.674Z,1.20
2017-09-15T15:37:53.154Z,1.20
2017-09-15T15:40:22.101Z,1.20
2017-09-15T15:42:50.250Z,1.10
2017-09-15T15:45:19.235Z,1.25
2017-09-15T15:47:48.160Z,1.35
2017-09-15T15:50:16.348Z,1.10
2017-09-15T15:52:44.481Z,1.42
2017-09-15T15:55:13.955Z,1.20
2017-09-15T15:57:42.085Z,1.10
2017-09-15T16:00:40.619Z,1.20
2017-09-15T16:03:09.076Z,1.10
2017-09-15T16:05:40.725Z,1.25
2017-09-15T16:08:09.288Z,1.40
2017-09-15T16:10:37.905Z,1.33
2017-09-15T16:13:06.089Z,1.45
2017-09-15T16:15:41.108Z,1.58
2017-09-15T16:21:07.422Z,1.52
2017-09-15T16:23:35.645Z,1.23
2017-09-15T16:26:03.889Z,1.10
2017-09-15T16:28:32.096Z,1.20
2017-09-15T16:31:01.030Z,1.40
2017-09-15T16:33:29.161Z,1.73
2017-09-15T16:35:57.334Z,1.50
2017-09-15T16:38:25.472Z,1.10
2017-09-15T16:40:53.648Z,1.20
2017-09-15T16:43:21.785Z,1.10
2017-09-15T16:45:49.989Z,1.40
2017-09-15T16:48:18.168Z,1.40
2017-09-15T16:50:46.302Z,1.52
2017-09-15T16:53:14.468Z,3.60
2017-09-15T16:55:43.384Z,3.80
2017-09-15T16:58:11.541Z,3.65
2017-09-15T17:00:39.670Z,3.67
2017-09-15T17:03:07.959Z,3.70
2017-09-15T17:05:36.096Z,3.00
2017-09-15T17:08:04.234Z,2.00
2017-09-15T17:10:32.404Z,1.50
2017-09-15T17:13:00.553Z,1.30
2017-09-15T17:15:28.686Z,1.60
2017-09-15T17:17:56.841Z,1.52
2017-09-15T17:20:24.991Z,1.40
2017-09-15T17:22:54.058Z,1.50
2017-09-15T17:25:22.190Z,1.67
2017-09-15T17:27:50.365Z,1.60
2017-09-15T17:30:18.504Z,2.70
2017-09-15T17:32:47.422Z,2.30
2017-09-15T17:35:15.574Z,2.20
2017-09-15T17:37:43.731Z,2.20
2017-09-15T17:40:12.425Z,2.42
2017-09-15T17:42:41.540Z,2.53
2017-09-15T17:45:09.667Z,2.80
2017-09-15T17:47:37.835Z,3.40
2017-09-15T17:50:05.985Z,3.60
2017-09-15T17:52:34.152Z,4.07
2017-09-15T17:55:02.308Z,2.80
2017-09-15T17:57:30.519Z,2.60
2017-09-15T17:59:58.671Z,2.65
2017-09-15T18:02:28.054Z,2.50
2017-09-15T18:04:56.211Z,2.10
2017-09-15T18:07:25.119Z,2.45
2017-09-15T18:09:53.279Z,2.35
2017-09-15T18:12:22.186Z,3.00
2017-09-15T18:14:50.482Z,3.45
2017-09-15T18:17:18.658Z,4.07
2017-09-15T18:19:46.802Z,4.20
2017-09-15T18:22:14.961Z,4.05
2017-09-15T18:24:43.868Z,4.05
2017-09-15T18:27:12.069Z,3.62
2017-09-15T18:29:40.241Z,3.20
2017-09-15T18:32:08.395Z,2.45
2017-09-15T18:34:36.664Z,2.40
2017-09-15T18:37:04.804Z,1.85
2017-09-15T18:39:32.992Z,2.40
2017-09-15T18:42:01.235Z,2.72
2017-09-15T18:44:29.414Z,2.05
2017-09-15T18:46:57.565Z,2.15
2017-09-15T18:49:27.149Z,2.22
2017-09-15T18:51:55.303Z,2.08
2017-09-15T18:54:24.196Z,2.20
2017-09-15T18:56:52.385Z,2.22
2017-09-15T18:59:20.533Z,2.03
2017-09-15T19:01:49.443Z,2.10
2017-09-15T19:04:17.628Z,2.33
2017-09-15T19:06:45.770Z,3.10
2017-09-15T19:09:14.704Z,2.33
2017-09-15T19:11:42.842Z,3.25
2017-09-15T19:14:11.771Z,2.92
2017-09-15T19:16:39.935Z,2.45
2017-09-15T19:19:08.118Z,2.65
2017-09-15T19:21:36.312Z,2.37
2017-09-15T19:24:04.482Z,2.70
2017-09-15T19:26:33.002Z,2.10
2017-09-15T19:29:01.954Z,2.15
2017-09-15T19:31:30.125Z,2.92
2017-09-15T19:33:58.296Z,2.85
2017-09-15T19:36:26.433Z,2.80
2017-09-15T19:38:54.661Z,2.75
2017-09-15T19:41:22.838Z,2.72
2017-09-15T19:43:51.021Z,2.85
2017-09-15T19:46:19.202Z,2.85
2017-09-15T19:48:47.398Z,2.45
2017-09-15T19:51:16.301Z,2.65
2017-09-15T19:53:44.445Z,2.67
2017-09-15T19:56:13.541Z,3.83
2017-09-15T19:58:41.692Z,3.05
2017-09-15T20:01:11.357Z,2.90
2017-09-15T20:03:39.491Z,2.70
2017-09-15T20:06:08.415Z,2.70
2017-09-15T20:08:36.587Z,2.70
2017-09-15T20:11:04.774Z,2.80
2017-09-15T20:13:32.924Z,3.95
2017-09-15T20:16:02.642Z,3.10
2017-09-15T20:18:30.781Z,3.15
2017-09-15T20:20:58.934Z,2.70
2017-09-15T20:23:27.128Z,2.83
2017-09-15T20:25:55.277Z,2.70
2017-09-15T20:28:23.446Z,2.70
2017-09-15T20:30:51.603Z,2.70
2017-09-15T20:33:19.751Z,2.80
2017-09-15T20:35:47.965Z,2.83
2017-09-15T20:38:16.118Z,3.33
2017-09-15T20:40:44.605Z,3.00
2017-09-15T20:43:13.971Z,2.70
2017-09-15T20:45:42.884Z,3.17
2017-09-15T20:48:11.054Z,3.70
2017-09-15T20:50:39.965Z,4.43
2017-09-15T20:53:08.140Z,4.10
2017-09-15T20:55:36.282Z,3.50
2017-09-15T20:58:04.461Z,3.53
2017-09-15T21:00:33.492Z,2.90
2017-09-15T21:03:01.665Z,3.20
2017-09-15T21:05:29.862Z,3.40
2017-09-15T21:07:58.393Z,3.30
2017-09-15T21:10:26.531Z,3.00
2017-09-15T21:12:54.701Z,3.17
2017-09-15T21:15:22.866Z,2.70
2017-09-15T21:17:51.047Z,3.35
2017-09-15T21:20:19.202Z,3.05
2017-09-15T21:22:47.357Z,3.30
2017-09-15T21:25:15.653Z,3.00
2017-09-15T21:27:43.785Z,3.55
2017-09-15T21:30:11.949Z,3.05
2017-09-15T21:32:40.857Z,2.40
2017-09-15T21:35:09.077Z,2.78
2017-09-15T21:37:37.249Z,3.08
2017-09-15T21:40:05.397Z,3.75
2017-09-15T21:42:36.014Z,2.92
2017-09-15T21:45:04.162Z,3.30
2017-09-15T21:47:33.101Z,3.10
2017-09-15T21:50:01.265Z,3.03
2017-09-15T21:52:29.593Z,3.40
2017-09-15T21:54:58.505Z,3.35
2017-09-15T21:57:26.664Z,3.25
2017-09-15T21:59:54.821Z,3.50
2017-09-15T22:02:22.970Z,2.95
2017-09-15T22:04:51.142Z,2.95
2017-09-15T22:07:19.290Z,3.35
2017-09-15T22:09:47.421Z,3.55
2017-09-15T22:12:16.449Z,3.00
2017-09-15T22:14:44.582Z,2.97
2017-09-15T22:17:13.561Z,2.95
2017-09-15T22:19:41.714Z,3.00
2017-09-15T22:22:09.842Z,2.65
2017-09-15T22:24:38.005Z,3.05
2017-09-15T22:27:06.967Z,3.35
2017-09-15T22:29:35.112Z,3.97
2017-09-15T22:32:03.261Z,3.65
2017-09-15T22:34:31.520Z,3.10
2017-09-15T22:37:00.448Z,2.90
2017-09-15T22:39:28.609Z,3.20
2017-09-15T22:41:56.801Z,2.80
2017-09-15T22:44:24.982Z,2.80
2017-09-15T22:46:53.130Z,3.05
2017-09-15T22:49:21.276Z,3.42
2017-09-15T22:51:49.544Z,3.60
2017-09-15T22:54:17.716Z,2.83
2017-09-15T22:56:46.653Z,3.00
2017-09-15T22:59:14.801Z,3.53
2017-09-15T23:01:43.105Z,3.65
2017-09-15T23:04:11.233Z,2.95
2017-09-15T23:06:40.141Z,3.58
2017-09-15T23:09:08.414Z,3.05
2017-09-15T23:11:36.549Z,2.90
2017-09-15T23:14:04.715Z,2.95
2017-09-15T23:16:32.860Z,2.78
2017-09-15T23:19:01.027Z,2.90
2017-09-15T23:21:29.169Z,2.65
2017-09-15T23:23:58.077Z,2.70
2017-09-15T23:26:26.344Z,2.87
2017-09-15T23:28:54.478Z,2.60
2017-09-15T23:31:22.633Z,2.97
2017-09-15T23:33:50.768Z,2.78
2017-09-15T23:36:19.803Z,2.70
2017-09-15T23:38:47.958Z,2.72
2017-09-15T23:41:16.109Z,2.65
2017-09-15T23:43:44.389Z,2.70
2017-09-15T23:46:12.535Z,3.12
2017-09-15T23:48:40.725Z,2.62
2017-09-15T23:51:08.864Z,2.95
2017-09-15T23:53:37.005Z,2.50
2017-09-15T23:56:05.171Z,2.70
2017-09-15T23:58:33.302Z,3.17
